Time;durP1;ratioP1;P1;durP2;ratioP2;P2;SDS_P1;SDS_P2;PMS_P1;PMS_P2;Temp;Humidity;BMP_temperature;BMP_pressure;BME280_temperature;BME280_humidity;BME280_pressure;Samples;Min_cycle;Max_cycle;Signal;HPM_P1;HPM_P2
2023/10/15 00:01:50;;;;;;;4.40;1.98;;;8.10;99.90;;;;;;5091697;28;20052;-75
2023/10/15 00:04:16;;;;;;;4.85;1.20;;;8.10;99.90;;;;;;5091543;28;20582;-75
2023/10/15 00:06:42;;;;;;;1.85;0.82;;;8.10;99.90;;;;;;5091458;28;20115;-75
2023/10/15 00:09:08;;;;;;;5.07;0.90;;;8.10;99.90;;;;;;5074461;28;20067;-76
2023/10/15 00:11:34;;;;;;;5.25;0.85;;;8.10;99.90;;;;;;5091263;28;20036;-75
2023/10/15 00:14:03;;;;;;;5.70;1.00;;;8.10;99.90;;;;;;5091671;28;20036;-75
2023/10/15 00:16:29;;;;;;;8.30;1.35;;;8.10;99.90;;;;;;5092704;28;20096;-75
2023/10/15 00:18:54;;;;;;;6.13;0.82;;;8.00;99.90;;;;;;5091596;28;20127;-76
2023/10/15 00:21:20;;;;;;;3.80;0.80;;;8.10;99.90;;;;;;5090960;28;20036;-75
2023/10/15 00:23:47;;;;;;;2.97;0.88;;;8.10;99.90;;;;;;5091279;28;20036;-75
2023/10/15 00:26:14;;;;;;;2.00;0.85;;;8.00;99.90;;;;;;5090974;28;20036;-75
2023/10/15 00:28:40;;;;;;;3.40;1.13;;;8.00;99.90;;;;;;5091414;28;20048;-75
2023/10/15 00:31:13;;;;;;;4.97;1.00;;;8.00;99.90;;;;;;5090862;28;20491;-75
2023/10/15 00:33:42;;;;;;;3.95;1.30;;;8.00;99.90;;;;;;5091173;28;20051;-75
2023/10/15 00:36:13;;;;;;;6.55;1.63;;;8.00;99.90;;;;;;5091001;28;20036;-75
2023/10/15 00:38:46;;;;;;;6.20;1.00;;;8.00;99.90;;;;;;5090852;28;20052;-75
2023/10/15 00:41:14;;;;;;;8.88;1.10;;;8.10;99.90;;;;;;5090693;28;20055;-75
2023/10/15 00:43:51;;;;;;;5.60;1.20;;;8.10;99.90;;;;;;5090896;28;20043;-75
2023/10/15 00:46:17;;;;;;;5.93;1.30;;;8.10;99.90;;;;;;5090825;28;20512;-75
2023/10/15 00:48:43;;;;;;;5.95;1.10;;;8.10;99.90;;;;;;5091068;28;20040;-75
2023/10/15 00:51:17;;;;;;;6.28;1.25;;;8.10;99.90;;;;;;5090537;28;20040;-75
2023/10/15 00:53:58;;;;;;;4.82;1.42;;;8.20;99.90;;;;;;5090851;28;20042;-75
2023/10/15 00:56:33;;;;;;;4.63;1.02;;;8.20;99.90;;;;;;5090706;28;20039;-76
2023/10/15 00:59:08;;;;;;;6.35;1.20;;;8.10;99.90;;;;;;5090614;28;20044;-74
2023/10/15 01:01:37;;;;;;;5.95;0.98;;;8.10;99.90;;;;;;5090694;28;20044;-75
2023/10/15 01:04:06;;;;;;;5.57;1.08;;;8.20;99.90;;;;;;5090700;28;20047;-75
2023/10/15 01:09:48;;;;;;;4.82;1.00;;;8.20;99.90;;;;;;5091814;28;20044;-75
2023/10/15 01:11:58;;;;;;;4.40;1.13;;;8.10;99.90;;;;;;5076464;28;20533;-75
2023/10/15 01:16:55;;;;;;;7.05;1.55;;;8.10;99.90;;;;;;5090661;28;20164;-75
2023/10/15 01:19:31;;;;;;;9.63;1.10;;;8.20;99.90;;;;;;5090363;28;20093;-73
2023/10/15 01:21:58;;;;;;;5.20;1.60;;;8.10;99.90;;;;;;5090301;28;20043;-72
2023/10/15 01:24:27;;;;;;;4.85;0.70;;;8.20;99.90;;;;;;5090259;28;20036;-72
2023/10/15 01:27:04;;;;;;;1.95;0.88;;;8.20;99.90;;;;;;5090272;28;20115;-73
2023/10/15 01:29:33;;;;;;;5.03;1.15;;;8.20;99.90;;;;;;5090526;28;20051;-73
2023/10/15 01:32:02;;;;;;;6.72;1.77;;;8.10;99.90;;;;;;5090416;28;20407;-73
2023/10/15 01:34:28;;;;;;;4.90;1.27;;;8.20;99.90;;;;;;5090333;28;20122;-73
2023/10/15 01:36:56;;;;;;;4.78;0.63;;;8.20;99.90;;;;;;5090229;28;20044;-73
2023/10/15 01:39:37;;;;;;;4.38;0.90;;;8.20;99.90;;;;;;5090109;28;20133;-73
2023/10/15 01:42:06;;;;;;;7.72;1.00;;;8.20;99.90;;;;;;5073332;28;20047;-73
2023/10/15 01:44:33;;;;;;;5.43;0.73;;;8.20;99.90;;;;;;5090224;28;20047;-73
2023/10/15 01:49:33;;;;;;;7.15;2.10;;;8.20;99.90;;;;;;5090831;28;20072;-73
2023/10/15 01:52:09;;;;;;;4.22;0.93;;;8.20;99.90;;;;;;5093968;28;20048;-73
2023/10/15 01:54:44;;;;;;;7.47;2.10;;;8.20;99.90;;;;;;5094076;28;20040;-73
2023/10/15 01:57:15;;;;;;;7.15;1.30;;;8.20;99.90;;;;;;5094112;28;20109;-74
2023/10/15 01:59:47;;;;;;;4.70;1.55;;;8.20;99.90;;;;;;5093789;28;20041;-74
2023/10/15 02:02:17;;;;;;;7.40;1.05;;;8.20;99.90;;;;;;5093777;28;20028;-73
2023/10/15 02:04:47;;;;;;;5.30;1.02;;;8.10;99.90;;;;;;5095372;28;20062;-73
2023/10/15 02:07:17;;;;;;;4.68;1.02;;;8.10;99.90;;;;;;5094065;28;20040;-74
2023/10/15 02:09:44;;;;;;;6.25;1.25;;;8.00;99.90;;;;;;5093705;28;20123;-73
2023/10/15 02:12:12;;;;;;;2.65;1.50;;;8.00;99.90;;;;;;5093598;28;20120;-73
2023/10/15 02:14:41;;;;;;;6.93;1.63;;;8.00;99.90;;;;;;5093901;28;20048;-73
2023/10/15 02:17:13;;;;;;;4.30;1.13;;;7.90;99.90;;;;;;5093609;28;20097;-73
2023/10/15 02:19:42;;;;;;;8.88;1.00;;;7.90;99.90;;;;;;5093474;28;20054;-73
2023/10/15 02:22:12;;;;;;;4.57;0.80;;;7.90;99.90;;;;;;5093648;28;20097;-73
2023/10/15 02:24:46;;;;;;;4.68;1.02;;;7.80;99.90;;;;;;5093894;28;20043;-73
2023/10/15 02:27:30;;;;;;;3.65;0.82;;;7.80;99.90;;;;;;5093618;28;20093;-73
2023/10/15 02:29:55;;;;;;;4.80;1.38;;;7.70;99.90;;;;;;5076457;28;20089;-73
2023/10/15 02:34:54;;;;;;;5.35;0.80;;;7.70;99.90;;;;;;5093582;28;20048;-73
2023/10/15 02:37:26;;;;;;;5.85;0.70;;;7.70;99.90;;;;;;5093349;28;20051;-74
2023/10/15 02:39:53;;;;;;;8.20;1.08;;;7.70;99.90;;;;;;5093018;28;20042;-73
2023/10/15 02:42:19;;;;;;;6.07;0.70;;;7.60;99.90;;;;;;5093003;28;20042;-74
2023/10/15 02:44:50;;;;;;;5.18;0.90;;;7.60;99.90;;;;;;5093127;28;20032;-73
2023/10/15 02:47:19;;;;;;;4.70;0.88;;;7.60;99.90;;;;;;5092976;28;20525;-73
2023/10/15 02:49:53;;;;;;;7.18;0.82;;;7.60;99.90;;;;;;5093070;28;20518;-73
2023/10/15 02:52:20;;;;;;;3.95;1.02;;;7.60;99.90;;;;;;5092859;28;20122;-73
2023/10/15 02:54:46;;;;;;;7.72;0.77;;;7.60;99.90;;;;;;5092965;28;20490;-73
2023/10/15 02:57:15;;;;;;;9.55;1.98;;;7.60;99.90;;;;;;5094156;28;20036;-74
2023/10/15 02:59:50;;;;;;;4.03;1.20;;;7.70;99.90;;;;;;5093949;28;20076;-74
2023/10/15 03:02:20;;;;;;;4.43;1.42;;;7.70;99.90;;;;;;5091739;28;20380;-74
2023/10/15 03:04:51;;;;;;;6.28;0.82;;;7.70;99.90;;;;;;5094245;28;20070;-73
2023/10/15 03:07:19;;;;;;;5.78;0.98;;;7.70;99.90;;;;;;5092642;28;20036;-73
2023/10/15 03:09:56;;;;;;;3.15;1.08;;;7.80;99.90;;;;;;5092552;28;20052;-74
2023/10/15 03:12:33;;;;;;;5.00;0.85;;;7.70;99.90;;;;;;5092692;28;20491;-73
2023/10/15 03:15:00;;;;;;;5.57;1.13;;;7.70;99.90;;;;;;5092552;28;20048;-74
2023/10/15 03:17:29;;;;;;;3.78;0.85;;;7.70;99.90;;;;;;5075559;28;20043;-74
2023/10/15 03:20:10;;;;;;;4.47;0.82;;;7.70;99.90;;;;;;5092291;28;20040;-74
2023/10/15 03:22:38;;;;;;;3.13;0.90;;;7.70;99.90;;;;;;5093807;28;20115;-74
2023/10/15 03:25:05;;;;;;;4.20;0.85;;;7.60;99.90;;;;;;5092404;28;20040;-74
2023/10/15 03:27:32;;;;;;;2.70;0.77;;;7.60;99.90;;;;;;5092334;28;20127;-74
2023/10/15 03:29:58;;;;;;;3.15;0.85;;;7.60;99.90;;;;;;5092358;28;20050;-74
2023/10/15 03:32:37;;;;;;;3.33;0.63;;;7.60;99.90;;;;;;5091815;28;20036;-74
2023/10/15 03:35:15;;;;;;;2.28;0.68;;;7.60;99.90;;;;;;5092232;28;20056;-74
2023/10/15 03:37:45;;;;;;;4.18;1.10;;;7.60;99.90;;;;;;5091987;28;20167;-74
2023/10/15 03:40:13;;;;;;;4.13;0.70;;;7.60;99.90;;;;;;5091823;28;20139;-74
2023/10/15 03:42:40;;;;;;;6.05;0.73;;;7.60;99.90;;;;;;5075313;28;20040;-74
2023/10/15 03:45:09;;;;;;;4.15;0.70;;;7.60;99.90;;;;;;5092206;28;20067;-74
2023/10/15 03:47:39;;;;;;;5.78;0.70;;;7.60;99.90;;;;;;5092050;28;20044;-74
2023/10/15 03:50:09;;;;;;;4.35;1.05;;;7.60;99.90;;;;;;5092890;28;20048;-74
2023/10/15 03:52:35;;;;;;;4.50;1.27;;;7.60;99.90;;;;;;5093007;28;20040;-74
2023/10/15 03:55:00;;;;;;;4.80;0.80;;;7.60;99.90;;;;;;5092973;28;20491;-74
2023/10/15 03:57:34;;;;;;;3.05;0.63;;;7.60;99.90;;;;;;5091592;28;20040;-74
2023/10/15 04:00:00;;;;;;;4.50;0.93;;;7.50;99.90;;;;;;5091534;28;20040;-74
2023/10/15 04:02:26;;;;;;;2.42;0.70;;;7.50;99.90;;;;;;5092926;28;20040;-74
2023/10/15 04:05:11;;;;;;;1.30;0.80;;;7.40;99.90;;;;;;5091591;28;20036;-74
2023/10/15 04:07:47;;;;;;;3.20;0.57;;;7.40;99.90;;;;;;5091742;28;20036;-74
2023/10/15 04:10:13;;;;;;;0.90;0.40;;;7.30;99.90;;;;;;5091375;28;20089;-75
2023/10/15 04:12:43;;;;;;;1.50;0.40;;;7.30;99.90;;;;;;5091126;28;20036;-74
2023/10/15 04:15:14;;;;;;;3.92;1.00;;;7.40;99.90;;;;;;5091352;28;20044;-74
2023/10/15 04:17:42;;;;;;;3.25;0.50;;;7.30;99.90;;;;;;5091412;28;20048;-73
2023/10/15 04:20:08;;;;;;;2.78;0.50;;;7.30;99.90;;;;;;5090926;28;20055;-74
2023/10/15 04:22:44;;;;;;;1.77;1.05;;;7.30;99.90;;;;;;5074350;28;20036;-74
2023/10/15 04:25:23;;;;;;;4.10;0.50;;;7.30;99.90;;;;;;5091224;28;20085;-74
2023/10/15 04:27:49;;;;;;;1.02;0.55;;;7.40;99.90;;;;;;5091150;28;20127;-74
2023/10/15 04:30:14;;;;;;;1.27;0.40;;;7.40;99.90;;;;;;5090874;28;20048;-74
2023/10/15 04:35:11;;;;;;;2.08;1.00;;;7.40;99.90;;;;;;5091090;28;20560;-74
2023/10/15 04:37:37;;;;;;;1.42;0.60;;;7.40;99.90;;;;;;5087431;28;20059;-74
2023/10/15 04:40:11;;;;;;;1.55;0.80;;;7.30;99.90;;;;;;5077829;28;20047;-74
2023/10/15 04:42:48;;;;;;;2.40;1.25;;;7.30;99.90;;;;;;5070643;28;20044;-74
2023/10/15 04:45:21;;;;;;;3.10;0.35;;;7.30;99.90;;;;;;5074541;28;20503;-74
2023/10/15 04:48:00;;;;;;;0.43;0.30;;;7.30;99.90;;;;;;5082639;28;20032;-74
2023/10/15 04:50:32;;;;;;;3.30;0.40;;;7.20;99.90;;;;;;5070484;28;20508;-74
2023/10/15 04:53:13;;;;;;;1.95;0.38;;;7.30;99.90;;;;;;5070830;28;20106;-74
2023/10/15 04:55:40;;;;;;;2.38;0.57;;;7.20;99.90;;;;;;5070715;28;20041;-75
2023/10/15 04:58:05;;;;;;;2.15;0.28;;;7.20;99.90;;;;;;5070846;28;20446;-74
2023/10/15 05:00:33;;;;;;;0.85;0.32;;;7.20;99.90;;;;;;5071437;28;20036;-74
2023/10/15 05:02:59;;;;;;;3.03;0.63;;;7.20;99.90;;;;;;5070505;28;20116;-74
2023/10/15 05:05:24;;;;;;;1.85;0.50;;;7.20;99.90;;;;;;5070294;28;20125;-74
2023/10/15 05:07:50;;;;;;;2.67;0.43;;;7.20;99.90;;;;;;5070458;28;20032;-74
2023/10/15 05:10:15;;;;;;;0.60;0.30;;;7.20;99.90;;;;;;5070080;28;20047;-74
2023/10/15 05:12:41;;;;;;;1.73;0.60;;;7.10;99.90;;;;;;5070631;28;20039;-74
2023/10/15 05:15:13;;;;;;;1.20;0.30;;;7.20;99.90;;;;;;5070370;28;20071;-73
2023/10/15 05:17:42;;;;;;;2.30;0.60;;;7.20;99.90;;;;;;5070406;28;20055;-73
2023/10/15 05:20:11;;;;;;;1.60;0.52;;;7.10;99.90;;;;;;5070247;28;20185;-73
2023/10/15 05:22:37;;;;;;;2.53;0.40;;;7.10;99.90;;;;;;5053780;28;20589;-73
2023/10/15 05:25:04;;;;;;;2.42;0.40;;;7.10;99.90;;;;;;5072215;28;20159;-73
2023/10/15 05:27:32;;;;;;;2.70;0.50;;;7.00;99.90;;;;;;5057554;28;20040;-73
2023/10/15 05:29:58;;;;;;;2.13;0.35;;;7.10;99.90;;;;;;5074224;28;20043;-73
2023/10/15 05:32:24;;;;;;;1.73;0.43;;;7.10;99.90;;;;;;5074078;28;20052;-74
2023/10/15 05:34:51;;;;;;;1.33;0.38;;;7.10;99.90;;;;;;5074267;28;20482;-73
2023/10/15 05:37:17;;;;;;;2.33;0.60;;;7.00;99.90;;;;;;5057669;28;20044;-74
2023/10/15 05:39:42;;;;;;;4.45;0.50;;;7.10;99.90;;;;;;5073928;28;20040;-73
2023/10/15 05:42:08;;;;;;;5.25;0.80;;;7.10;99.90;;;;;;5073916;28;20033;-74
2023/10/15 05:44:35;;;;;;;1.27;0.65;;;7.10;99.90;;;;;;5057385;28;20040;-73
2023/10/15 05:47:01;;;;;;;3.20;0.60;;;7.10;99.90;;;;;;5057189;28;20046;-73
2023/10/15 05:49:26;;;;;;;1.95;0.45;;;7.00;99.90;;;;;;5073813;28;20049;-73
2023/10/15 05:51:52;;;;;;;2.10;0.57;;;7.10;99.90;;;;;;5057079;28;20055;-73
2023/10/15 05:54:18;;;;;;;7.25;0.85;;;7.00;99.90;;;;;;5073801;28;20041;-73
2023/10/15 05:56:44;;;;;;;5.40;0.73;;;7.00;99.90;;;;;;5073616;28;20048;-73
2023/10/15 05:59:09;;;;;;;4.40;0.82;;;7.10;99.90;;;;;;5083187;28;20033;-73
2023/10/15 06:01:35;;;;;;;1.98;1.20;;;7.00;99.90;;;;;;5073208;28;20388;-74
2023/10/15 06:04:02;;;;;;;4.53;0.75;;;7.10;99.90;;;;;;5073631;28;20040;-73
2023/10/15 06:06:28;;;;;;;3.00;0.93;;;7.10;99.90;;;;;;5074925;28;20044;-73
2023/10/15 06:08:56;;;;;;;10.55;1.25;;;7.10;99.90;;;;;;5073747;28;20040;-74
2023/10/15 06:11:21;;;;;;;5.07;0.75;;;7.10;99.90;;;;;;5056645;28;20174;-73
2023/10/15 06:13:47;;;;;;;5.93;0.70;;;7.20;99.90;;;;;;5073299;28;20643;-73
2023/10/15 06:16:14;;;;;;;2.95;0.80;;;7.10;99.90;;;;;;5073085;28;20047;-73
2023/10/15 06:18:40;;;;;;;4.45;0.73;;;7.10;99.90;;;;;;5074543;28;20447;-74
2023/10/15 06:21:05;;;;;;;2.47;1.13;;;7.10;99.90;;;;;;5072974;28;20040;-73
2023/10/15 06:23:32;;;;;;;2.75;0.70;;;7.00;99.90;;;;;;5073253;28;20040;-73
2023/10/15 06:25:58;;;;;;;3.13;1.23;;;7.10;99.90;;;;;;5074277;28;20499;-76
2023/10/15 06:28:25;;;;;;;1.30;0.77;;;7.00;99.90;;;;;;5073213;28;20086;-73
2023/10/15 06:30:51;;;;;;;3.60;0.68;;;7.10;99.90;;;;;;5072867;28;20048;-73
2023/10/15 06:33:18;;;;;;;2.40;0.50;;;7.10;99.90;;;;;;5073136;28;20040;-73
2023/10/15 06:35:43;;;;;;;4.05;0.77;;;7.10;99.90;;;;;;5073013;28;20044;-73
2023/10/15 06:38:09;;;;;;;4.35;1.58;;;7.10;99.90;;;;;;5056185;28;20048;-74
2023/10/15 06:40:38;;;;;;;4.50;0.90;;;7.10;99.90;;;;;;5056079;28;20050;-74
2023/10/15 06:43:04;;;;;;;2.90;0.60;;;7.10;99.90;;;;;;5056216;28;20072;-74
2023/10/15 06:45:31;;;;;;;3.00;0.77;;;7.10;99.90;;;;;;5073108;28;20622;-74
2023/10/15 06:47:57;;;;;;;4.72;0.82;;;7.10;99.90;;;;;;5073160;28;20048;-74
2023/10/15 06:50:23;;;;;;;7.40;1.95;;;7.10;99.90;;;;;;5072660;28;20083;-75
2023/10/15 06:52:49;;;;;;;4.25;0.60;;;7.10;99.90;;;;;;5072981;28;20075;-75
2023/10/15 06:55:16;;;;;;;2.33;0.47;;;7.10;99.90;;;;;;5078683;28;20075;-73
2023/10/15 06:57:42;;;;;;;3.97;0.82;;;7.10;99.90;;;;;;5092681;28;20537;-73
2023/10/15 07:00:12;;;;;;;4.13;0.50;;;7.10;99.90;;;;;;5093869;28;20403;-74
2023/10/15 07:02:38;;;;;;;4.95;1.08;;;7.10;99.90;;;;;;5093083;28;20445;-74
2023/10/15 07:05:04;;;;;;;3.95;0.80;;;7.10;99.90;;;;;;5076178;28;20040;-75
2023/10/15 07:07:33;;;;;;;2.40;0.40;;;7.10;99.90;;;;;;5092668;28;20146;-74
2023/10/15 07:10:06;;;;;;;4.20;0.52;;;7.10;99.90;;;;;;5092511;28;20055;-73
2023/10/15 07:12:34;;;;;;;2.28;0.60;;;7.20;99.90;;;;;;5093835;28;20577;-74
2023/10/15 07:15:01;;;;;;;2.42;0.68;;;7.10;99.90;;;;;;5092885;28;20040;-74
2023/10/15 07:17:27;;;;;;;3.38;0.68;;;7.20;99.90;;;;;;5092437;28;20078;-74
2023/10/15 07:19:53;;;;;;;2.15;0.70;;;7.30;99.90;;;;;;5092261;28;20040;-74
2023/10/15 07:22:18;;;;;;;3.63;0.50;;;7.50;99.90;;;;;;5092101;28;20050;-74
2023/10/15 07:24:44;;;;;;;5.70;1.40;;;7.50;99.90;;;;;;5093145;28;20115;-74
2023/10/15 07:27:09;;;;;;;3.67;0.70;;;7.50;99.90;;;;;;5074737;28;20055;-74
2023/10/15 07:29:35;;;;;;;2.70;0.63;;;7.50;99.90;;;;;;5091601;28;20032;-75
2023/10/15 07:32:00;;;;;;;2.63;0.80;;;7.50;99.90;;;;;;5091639;28;20093;-76
2023/10/15 07:34:26;;;;;;;3.30;0.70;;;7.40;99.90;;;;;;5091789;28;20624;-75
2023/10/15 07:36:56;;;;;;;2.13;0.40;;;7.40;99.90;;;;;;5093040;28;20032;-75
2023/10/15 07:39:27;;;;;;;1.15;0.50;;;7.30;99.90;;;;;;5075131;28;20089;-76
2023/10/15 07:41:53;;;;;;;4.88;0.50;;;7.30;99.90;;;;;;5091240;28;20075;-77
2023/10/15 07:44:19;;;;;;;4.55;0.60;;;7.30;99.90;;;;;;5092825;28;20072;-75
2023/10/15 07:46:45;;;;;;;2.95;0.45;;;7.20;99.90;;;;;;5091069;28;20691;-76
2023/10/15 07:49:15;;;;;;;2.30;0.47;;;7.20;99.90;;;;;;5091728;28;20042;-76
2023/10/15 07:51:41;;;;;;;2.35;0.45;;;7.30;99.90;;;;;;5091926;28;20083;-76
2023/10/15 07:54:07;;;;;;;2.55;0.68;;;7.30;99.90;;;;;;5091724;28;20071;-75
2023/10/15 07:56:34;;;;;;;2.95;1.00;;;7.30;99.90;;;;;;5092155;28;20469;-75
2023/10/15 07:59:08;;;;;;;2.38;0.50;;;7.30;99.90;;;;;;5091804;28;20047;-75
2023/10/15 08:01:33;;;;;;;;;;;7.20;99.90;;;;;;5080332;28;20049;-75
2023/10/15 08:03:59;;;;;;;1.95;0.50;;;7.20;99.90;;;;;;5074468;28;19931;-76
2023/10/15 08:06:25;;;;;;;2.63;0.90;;;7.30;99.90;;;;;;5091279;28;20483;-75
2023/10/15 08:08:51;;;;;;;2.85;0.60;;;7.20;99.90;;;;;;5092524;28;20040;-75
2023/10/15 08:11:16;;;;;;;2.20;0.40;;;7.20;99.90;;;;;;5107632;28;20040;-75
2023/10/15 08:13:42;;;;;;;6.03;1.00;;;7.20;99.90;;;;;;5092470;28;20063;-76
2023/10/15 08:16:08;;;;;;;2.30;0.70;;;7.30;99.90;;;;;;5108652;28;20163;-76
2023/10/15 08:18:33;;;;;;;4.35;0.70;;;7.40;99.90;;;;;;5078795;28;20045;-75
2023/10/15 08:20:59;;;;;;;3.60;0.50;;;7.60;99.90;;;;;;5090198;28;20040;-76
2023/10/15 08:23:25;;;;;;;0.85;0.30;;;7.80;99.90;;;;;;5091056;28;20028;-75
2023/10/15 08:25:50;;;;;;;3.00;0.50;;;7.90;99.90;;;;;;5092091;28;20059;-74
2023/10/15 08:28:16;;;;;;;1.77;0.80;;;7.90;99.90;;;;;;5091028;28;20538;-74
2023/10/15 08:30:42;;;;;;;4.57;0.80;;;7.80;99.90;;;;;;5092217;28;20472;-74
2023/10/15 08:33:12;;;;;;;4.13;0.85;;;7.90;99.90;;;;;;5091172;28;20067;-75
2023/10/15 08:35:38;;;;;;;3.28;0.70;;;8.00;99.90;;;;;;5061606;28;20044;-75
2023/10/15 08:38:07;;;;;;;4.22;0.95;;;8.20;99.90;;;;;;5090505;28;20042;-75
2023/10/15 08:40:39;;;;;;;4.90;0.80;;;8.40;99.90;;;;;;5091895;28;20051;-75
2023/10/15 08:43:24;;;;;;;4.35;0.80;;;8.60;99.90;;;;;;5090740;28;20064;-75
2023/10/15 08:45:52;;;;;;;5.28;0.80;;;8.80;99.90;;;;;;5090828;28;20495;-74
2023/10/15 08:48:18;;;;;;;2.72;1.10;;;8.90;99.90;;;;;;5090530;28;20438;-74
2023/10/15 08:50:46;;;;;;;4.40;0.77;;;8.90;99.90;;;;;;5090382;28;20550;-75
2023/10/15 08:53:13;;;;;;;5.90;1.23;;;8.70;99.90;;;;;;5091974;28;20123;-74
2023/10/15 08:55:41;;;;;;;3.72;1.15;;;8.40;99.90;;;;;;5091646;28;20119;-74
2023/10/15 08:58:09;;;;;;;3.60;1.05;;;8.30;99.90;;;;;;5090287;28;20067;-74
2023/10/15 09:00:36;;;;;;;4.95;0.95;;;8.10;99.90;;;;;;5077422;28;20083;-74
2023/10/15 09:03:02;;;;;;;5.32;1.08;;;8.00;99.90;;;;;;5092079;28;20491;-77
2023/10/15 09:05:40;;;;;;;5.07;1.33;;;7.80;99.90;;;;;;5077530;28;20040;-76
2023/10/15 09:08:07;;;;;;;2.60;0.85;;;7.70;99.90;;;;;;5090524;28;20064;-76
2023/10/15 09:10:42;;;;;;;3.75;0.90;;;7.60;99.90;;;;;;5075735;28;20051;-75
2023/10/15 09:13:14;;;;;;;7.30;0.90;;;7.60;99.90;;;;;;5090860;28;20514;-77
2023/10/15 09:15:43;;;;;;;5.07;0.73;;;7.60;99.90;;;;;;5091793;28;20043;-76
2023/10/15 09:18:11;;;;;;;7.93;1.05;;;7.60;99.90;;;;;;5090434;28;20036;-74
2023/10/15 09:20:40;;;;;;;4.25;0.90;;;7.60;99.90;;;;;;5091118;28;20040;-75
2023/10/15 09:23:05;;;;;;;2.50;0.65;;;7.70;99.90;;;;;;5090347;28;20115;-75
2023/10/15 09:25:31;;;;;;;1.92;0.63;;;7.80;99.90;;;;;;5090851;28;20178;-74
2023/10/15 09:27:58;;;;;;;4.18;0.80;;;7.90;99.90;;;;;;5091518;28;20047;-74
2023/10/15 09:30:25;;;;;;;3.15;0.77;;;7.90;99.90;;;;;;5089745;28;20064;-77
2023/10/15 09:32:51;;;;;;;5.25;0.77;;;8.10;99.90;;;;;;5091628;28;20036;-74
2023/10/15 09:35:17;;;;;;;3.28;0.70;;;8.20;99.90;;;;;;5090372;28;20608;-74
2023/10/15 09:37:44;;;;;;;4.65;0.93;;;8.40;99.90;;;;;;5091251;28;20039;-74
2023/10/15 09:40:18;;;;;;;1.67;1.00;;;8.50;99.90;;;;;;5090906;28;20055;-75
2023/10/15 09:42:46;;;;;;;2.10;1.00;;;8.50;99.90;;;;;;5091846;28;20096;-73
2023/10/15 09:45:18;;;;;;;2.55;0.50;;;8.50;99.90;;;;;;5093358;28;20032;-73
2023/10/15 09:47:48;;;;;;;2.47;0.60;;;8.60;99.90;;;;;;5071862;28;20487;-76
2023/10/15 09:50:19;;;;;;;3.78;0.70;;;8.60;99.90;;;;;;5079256;28;20031;-75
2023/10/15 09:52:55;;;;;;;6.85;0.85;;;8.60;99.90;;;;;;5089893;28;20094;-75
2023/10/15 09:55:23;;;;;;;1.95;0.80;;;8.70;99.90;;;;;;5091011;28;20040;-75
2023/10/15 09:57:52;;;;;;;3.85;0.80;;;8.80;99.90;;;;;;5090812;28;20048;-75
2023/10/15 10:00:26;;;;;;;3.08;1.02;;;8.90;99.90;;;;;;5089875;28;20059;-75
2023/10/15 10:03:08;;;;;;;3.70;0.90;;;8.90;99.90;;;;;;5091106;28;20044;-75
2023/10/15 10:05:45;;;;;;;2.92;0.70;;;8.90;99.90;;;;;;5091436;28;20415;-75
2023/10/15 10:08:54;;;;;;;2.47;0.60;;;9.00;99.90;;;;;;5091519;28;20040;-75
2023/10/15 10:11:45;;;;;;;5.20;0.77;;;9.00;99.90;;;;;;5092127;28;20090;-76
2023/10/15 10:14:24;;;;;;;4.78;1.23;;;9.00;99.90;;;;;;5080622;28;20040;-76
2023/10/15 10:16:52;;;;;;;5.88;0.70;;;9.10;99.90;;;;;;5094981;28;20036;-76
2023/10/15 10:19:18;;;;;;;3.63;0.80;;;9.20;99.90;;;;;;5094769;28;20105;-75
2023/10/15 10:21:46;;;;;;;3.65;0.90;;;9.20;99.90;;;;;;5094673;28;20119;-74
2023/10/15 10:24:12;;;;;;;2.85;0.60;;;9.30;99.90;;;;;;5093408;28;20079;-77
2023/10/15 10:26:42;;;;;;;9.55;2.30;;;9.40;99.90;;;;;;5076465;28;20045;-75
2023/10/15 10:29:09;;;;;;;3.53;1.33;;;9.50;99.90;;;;;;5094038;28;20055;-75
2023/10/15 10:31:36;;;;;;;1.95;0.80;;;9.70;99.90;;;;;;5093265;28;20048;-75
2023/10/15 10:34:03;;;;;;;5.45;1.10;;;9.80;99.90;;;;;;5095594;28;20040;-77
2023/10/15 10:36:30;;;;;;;3.72;1.13;;;9.80;99.90;;;;;;5093322;28;20399;-77
2023/10/15 10:39:10;;;;;;;6.22;1.48;;;9.60;99.90;;;;;;5093613;28;20040;-78
2023/10/15 10:41:49;;;;;;;2.17;0.90;;;9.20;99.90;;;;;;5093147;28;20073;-76
2023/10/15 10:44:23;;;;;;;6.30;1.42;;;8.80;99.90;;;;;;5094581;28;20032;-76
2023/10/15 10:46:52;;;;;;;6.70;0.95;;;8.60;99.90;;;;;;5092855;28;20044;-75
2023/10/15 10:49:29;;;;;;;2.17;0.50;;;8.50;99.90;;;;;;5085656;28;20032;-78
2023/10/15 10:52:15;;;;;;;2.92;0.93;;;8.50;99.90;;;;;;5090798;28;20079;-78
2023/10/15 10:54:41;;;;;;;5.43;1.38;;;8.50;99.90;;;;;;5086017;28;20036;-78
2023/10/15 10:57:07;;;;;;;3.63;0.60;;;8.50;99.90;;;;;;5094053;28;20482;-77
2023/10/15 10:59:34;;;;;;;2.80;0.57;;;8.50;99.90;;;;;;5092651;28;20044;-78
2023/10/15 11:02:00;;;;;;;6.20;0.77;;;8.60;99.90;;;;;;5092631;28;20040;-78
2023/10/15 11:04:26;;;;;;;2.25;0.50;;;8.80;99.90;;;;;;5092779;28;20048;-78
2023/10/15 11:06:52;;;;;;;4.97;0.70;;;8.90;99.90;;;;;;5093221;28;20120;-78
2023/10/15 11:09:22;;;;;;;4.78;0.98;;;8.90;99.90;;;;;;5092534;28;20043;-78
2023/10/15 11:11:56;;;;;;;3.42;0.73;;;8.90;99.90;;;;;;5092607;28;20082;-77
2023/10/15 11:14:27;;;;;;;4.03;0.50;;;8.80;99.90;;;;;;5092781;28;20032;-79
2023/10/15 11:16:55;;;;;;;4.85;0.70;;;8.80;99.90;;;;;;5093170;28;20071;-78
2023/10/15 11:19:22;;;;;;;6.28;0.80;;;8.90;99.90;;;;;;5093117;28;20160;-77
2023/10/15 11:21:50;;;;;;;4.07;0.75;;;8.90;99.90;;;;;;5091442;28;20028;-77
2023/10/15 11:24:16;;;;;;;5.07;0.88;;;9.00;99.90;;;;;;5092280;28;20032;-77
2023/10/15 11:26:44;;;;;;;2.47;0.80;;;9.00;99.90;;;;;;5092116;28;20153;-77
2023/10/15 11:29:10;;;;;;;6.57;1.08;;;9.00;99.90;;;;;;5091780;28;20490;-77
2023/10/15 11:31:45;;;;;;;2.55;0.80;;;8.90;99.90;;;;;;5091705;28;20115;-77
2023/10/15 11:34:21;;;;;;;4.47;1.40;;;8.90;99.90;;;;;;5086937;28;20044;-77
2023/10/15 11:36:51;;;;;;;2.97;0.57;;;8.90;99.90;;;;;;5086382;28;20036;-77
2023/10/15 11:39:18;;;;;;;3.42;1.10;;;8.90;99.90;;;;;;5091756;28;20043;-77
2023/10/15 11:41:57;;;;;;;2.67;0.60;;;9.00;99.90;;;;;;5075161;28;20051;-76
2023/10/15 11:44:26;;;;;;;6.75;0.93;;;9.10;99.90;;;;;;5075416;28;20149;-77
2023/10/15 11:46:54;;;;;;;8.30;1.20;;;9.20;99.90;;;;;;5092092;28;20040;-77
2023/10/15 11:49:22;;;;;;;6.10;1.25;;;9.40;99.90;;;;;;5091869;28;20032;-77
2023/10/15 11:51:49;;;;;;;4.05;0.93;;;9.50;99.90;;;;;;5091927;28;20098;-78
2023/10/15 11:54:15;;;;;;;9.90;1.02;;;9.60;99.90;;;;;;5075252;28;20427;-77
2023/10/15 11:56:47;;;;;;;4.47;0.82;;;9.70;99.90;;;;;;5092756;28;20039;-76
2023/10/15 11:59:12;;;;;;;10.13;2.03;;;9.70;99.90;;;;;;5074907;28;20047;-76
2023/10/15 12:01:38;;;;;;;5.30;0.80;;;9.70;99.90;;;;;;5091851;28;20439;-76
2023/10/15 12:04:06;;;;;;;4.07;2.03;;;9.80;99.90;;;;;;5091526;28;20079;-77
2023/10/15 12:06:33;;;;;;;5.72;0.82;;;9.70;99.90;;;;;;5091736;28;20075;-76
2023/10/15 12:08:58;;;;;;;11.90;2.22;;;9.70;99.90;;;;;;5091564;28;20040;-77
2023/10/15 12:11:25;;;;;;;6.60;1.25;;;9.60;99.90;;;;;;5091323;28;20044;-77
2023/10/15 12:13:51;;;;;;;6.90;0.73;;;9.70;99.90;;;;;;5091483;28;20585;-77
2023/10/15 12:16:17;;;;;;;10.48;1.00;;;9.80;99.90;;;;;;5091344;28;20036;-78
2023/10/15 12:18:43;;;;;;;5.57;1.05;;;9.90;99.90;;;;;;5091557;28;20043;-78
2023/10/15 12:21:09;;;;;;;8.63;1.30;;;9.90;99.90;;;;;;5091124;28;20036;-77
2023/10/15 12:23:35;;;;;;;5.43;1.00;;;9.90;99.90;;;;;;5091169;28;20041;-77
2023/10/15 12:26:01;;;;;;;3.90;0.73;;;10.00;99.90;;;;;;5074255;28;20120;-76
2023/10/15 12:28:27;;;;;;;4.85;0.80;;;10.10;99.90;;;;;;5091509;28;20078;-76
2023/10/15 12:30:54;;;;;;;7.05;0.90;;;10.10;99.90;;;;;;5090864;28;20040;-76
2023/10/15 12:33:21;;;;;;;4.95;0.93;;;10.10;99.90;;;;;;5091094;28;20044;-76
2023/10/15 12:35:50;;;;;;;5.70;1.85;;;10.00;99.90;;;;;;5091075;28;20043;-76
2023/10/15 12:38:26;;;;;;;8.27;1.40;;;10.00;99.90;;;;;;5090996;28;20128;-76
2023/10/15 12:40:55;;;;;;;3.72;0.82;;;10.00;99.90;;;;;;5090697;28;20127;-76
2023/10/15 12:43:21;;;;;;;3.33;1.00;;;10.10;99.90;;;;;;5090929;28;20637;-76
2023/10/15 12:45:52;;;;;;;4.70;1.60;;;10.10;99.90;;;;;;5090907;28;20044;-76
2023/10/15 12:48:18;;;;;;;6.60;1.40;;;10.10;99.90;;;;;;5073970;28;20028;-76
2023/10/15 12:50:45;;;;;;;6.53;1.15;;;10.20;99.90;;;;;;5090629;28;20048;-76
2023/10/15 12:53:11;;;;;;;9.38;1.55;;;10.30;99.90;;;;;;5073891;28;20044;-76
2023/10/15 12:55:36;;;;;;;11.02;1.30;;;10.40;99.90;;;;;;5090942;28;20043;-74
2023/10/15 12:58:02;;;;;;;6.13;1.33;;;10.50;99.90;;;;;;5090630;28;20495;-76
2023/10/15 13:00:28;;;;;;;6.60;1.40;;;10.70;99.90;;;;;;5090259;28;20040;-76
2023/10/15 13:02:54;;;;;;;4.80;1.52;;;10.80;99.90;;;;;;5090862;28;20123;-77
2023/10/15 13:05:21;;;;;;;6.22;1.60;;;10.50;99.90;;;;;;5090596;28;20048;-76
2023/10/15 13:07:49;;;;;;;4.85;1.98;;;10.20;99.90;;;;;;5090653;28;20043;-76
2023/10/15 13:10:17;;;;;;;6.82;1.38;;;9.90;99.90;;;;;;5090631;28;20044;-76
2023/10/15 13:12:44;;;;;;;7.00;1.25;;;9.90;99.90;;;;;;5090622;28;20092;-76
2023/10/15 13:15:10;;;;;;;4.88;0.70;;;9.80;99.90;;;;;;5091162;28;20060;-77
2023/10/15 13:17:37;;;;;;;2.70;1.10;;;9.70;99.90;;;;;;5090903;28;20422;-76
2023/10/15 13:20:06;;;;;;;2.78;0.73;;;9.70;99.90;;;;;;5090280;28;20044;-78